sensor_id;sensor_type;location;lat;lon;timestamp;temperature;humidity
78696;SHT31;68030;51.980;5.646;2023-09-12T00:01:52;22.8;74.1
78696;SHT31;68030;51.980;5.646;2023-09-12T00:04:21;22.8;74.3
78696;SHT31;68030;51.980;5.646;2023-09-12T00:06:49;22.8;74.2
78696;SHT31;68030;51.980;5.646;2023-09-12T00:09:18;22.8;74.3
78696;SHT31;68030;51.980;5.646;2023-09-12T00:11:46;22.8;74.4
78696;SHT31;68030;51.980;5.646;2023-09-12T00:14:17;22.7;74.7
78696;SHT31;68030;51.980;5.646;2023-09-12T00:16:46;22.7;74.4
78696;SHT31;68030;51.980;5.646;2023-09-12T00:19:15;22.7;74.6
78696;SHT31;68030;51.980;5.646;2023-09-12T00:21:43;22.7;74.6
78696;SHT31;68030;51.980;5.646;2023-09-12T00:24:12;22.7;74.6
78696;SHT31;68030;51.980;5.646;2023-09-12T00:26:40;22.7;74.9
78696;SHT31;68030;51.980;5.646;2023-09-12T00:29:09;22.7;74.5
78696;SHT31;68030;51.980;5.646;2023-09-12T00:31:38;22.6;74.3
78696;SHT31;68030;51.980;5.646;2023-09-12T00:34:06;22.6;74.5
78696;SHT31;68030;51.980;5.646;2023-09-12T00:36:35;22.6;74.6
78696;SHT31;68030;51.980;5.646;2023-09-12T00:39:04;22.6;74.4
78696;SHT31;68030;51.980;5.646;2023-09-12T00:41:32;22.6;74.2
78696;SHT31;68030;51.980;5.646;2023-09-12T00:44:01;22.6;74.2
78696;SHT31;68030;51.980;5.646;2023-09-12T00:46:33;22.6;74.2
78696;SHT31;68030;51.980;5.646;2023-09-12T00:49:04;22.5;74.2
78696;SHT31;68030;51.980;5.646;2023-09-12T00:51:36;22.5;74.3
78696;SHT31;68030;51.980;5.646;2023-09-12T00:54:06;22.5;74.6
78696;SHT31;68030;51.980;5.646;2023-09-12T00:56:35;22.5;74.8
78696;SHT31;68030;51.980;5.646;2023-09-12T00:59:04;22.5;74.8
78696;SHT31;68030;51.980;5.646;2023-09-12T01:01:34;22.5;75.0
78696;SHT31;68030;51.980;5.646;2023-09-12T01:04:03;22.5;75.3
78696;SHT31;68030;51.980;5.646;2023-09-12T01:06:34;22.5;75.3
78696;SHT31;68030;51.980;5.646;2023-09-12T01:09:04;22.5;75.2
78696;SHT31;68030;51.980;5.646;2023-09-12T01:11:34;22.5;75.3
78696;SHT31;68030;51.980;5.646;2023-09-12T01:14:06;22.5;75.2
78696;SHT31;68030;51.980;5.646;2023-09-12T01:16:34;22.5;75.2
78696;SHT31;68030;51.980;5.646;2023-09-12T01:19:04;22.5;75.2
78696;SHT31;68030;51.980;5.646;2023-09-12T01:22:31;22.5;75.2
78696;SHT31;68030;51.980;5.646;2023-09-12T01:25:39;22.5;75.0
78696;SHT31;68030;51.980;5.646;2023-09-12T01:28:12;22.5;75.2
78696;SHT31;68030;51.980;5.646;2023-09-12T01:30:45;22.5;75.1
78696;SHT31;68030;51.980;5.646;2023-09-12T01:33:18;22.5;75.2
78696;SHT31;68030;51.980;5.646;2023-09-12T01:35:48;22.5;75.2
78696;SHT31;68030;51.980;5.646;2023-09-12T01:38:16;22.5;74.8
78696;SHT31;68030;51.980;5.646;2023-09-12T01:40:48;22.5;74.6
78696;SHT31;68030;51.980;5.646;2023-09-12T01:43:19;22.5;74.3
78696;SHT31;68030;51.980;5.646;2023-09-12T01:45:52;22.5;74.4
78696;SHT31;68030;51.980;5.646;2023-09-12T01:48:26;22.5;74.7
78696;SHT31;68030;51.980;5.646;2023-09-12T01:51:00;22.5;74.8
78696;SHT31;68030;51.980;5.646;2023-09-12T01:53:32;22.5;74.6
78696;SHT31;68030;51.980;5.646;2023-09-12T01:56:05;22.5;74.1
78696;SHT31;68030;51.980;5.646;2023-09-12T01:58:34;22.5;72.8
78696;SHT31;68030;51.980;5.646;2023-09-12T02:01:05;22.4;72.6
78696;SHT31;68030;51.980;5.646;2023-09-12T02:03:34;22.4;72.9
78696;SHT31;68030;51.980;5.646;2023-09-12T02:06:02;22.4;73.0
78696;SHT31;68030;51.980;5.646;2023-09-12T02:08:31;22.3;72.9
78696;SHT31;68030;51.980;5.646;2023-09-12T02:11:00;22.3;73.1
78696;SHT31;68030;51.980;5.646;2023-09-12T02:13:29;22.2;73.1
78696;SHT31;68030;51.980;5.646;2023-09-12T02:16:01;22.2;73.3
78696;SHT31;68030;51.980;5.646;2023-09-12T02:18:30;22.2;73.6
78696;SHT31;68030;51.980;5.646;2023-09-12T02:21:00;22.2;73.7
78696;SHT31;68030;51.980;5.646;2023-09-12T02:23:28;22.1;73.5
78696;SHT31;68030;51.980;5.646;2023-09-12T02:25:57;22.1;73.7
78696;SHT31;68030;51.980;5.646;2023-09-12T02:28:26;22.1;73.7
78696;SHT31;68030;51.980;5.646;2023-09-12T02:30:54;22.1;73.4
78696;SHT31;68030;51.980;5.646;2023-09-12T02:33:23;22.0;73.7
78696;SHT31;68030;51.980;5.646;2023-09-12T02:35:51;22.0;73.6
78696;SHT31;68030;51.980;5.646;2023-09-12T02:38:20;22.0;73.6
78696;SHT31;68030;51.980;5.646;2023-09-12T02:40:49;22.0;73.7
78696;SHT31;68030;51.980;5.646;2023-09-12T02:43:17;22.0;74.0
78696;SHT31;68030;51.980;5.646;2023-09-12T02:45:46;21.9;74.0
78696;SHT31;68030;51.980;5.646;2023-09-12T02:48:14;21.9;74.1
78696;SHT31;68030;51.980;5.646;2023-09-12T02:50:43;21.9;74.3
78696;SHT31;68030;51.980;5.646;2023-09-12T02:53:13;21.9;74.2
78696;SHT31;68030;51.980;5.646;2023-09-12T02:55:42;21.9;74.2
78696;SHT31;68030;51.980;5.646;2023-09-12T02:58:10;21.8;74.3
78696;SHT31;68030;51.980;5.646;2023-09-12T03:00:40;21.8;74.2
78696;SHT31;68030;51.980;5.646;2023-09-12T03:03:09;21.8;74.4
78696;SHT31;68030;51.980;5.646;2023-09-12T03:05:37;21.8;74.2
78696;SHT31;68030;51.980;5.646;2023-09-12T03:08:06;21.8;74.3
78696;SHT31;68030;51.980;5.646;2023-09-12T03:10:35;21.8;74.2
78696;SHT31;68030;51.980;5.646;2023-09-12T03:13:04;21.7;74.4
78696;SHT31;68030;51.980;5.646;2023-09-12T03:15:37;21.7;74.6
78696;SHT31;68030;51.980;5.646;2023-09-12T03:18:09;21.7;74.1
78696;SHT31;68030;51.980;5.646;2023-09-12T03:20:40;21.7;74.0
78696;SHT31;68030;51.980;5.646;2023-09-12T03:23:08;21.7;74.1
78696;SHT31;68030;51.980;5.646;2023-09-12T03:25:38;21.7;74.3
78696;SHT31;68030;51.980;5.646;2023-09-12T03:28:08;21.7;74.2
78696;SHT31;68030;51.980;5.646;2023-09-12T03:30:38;21.6;74.1
78696;SHT31;68030;51.980;5.646;2023-09-12T03:33:07;21.6;74.3
78696;SHT31;68030;51.980;5.646;2023-09-12T03:35:35;21.6;74.2
78696;SHT31;68030;51.980;5.646;2023-09-12T03:38:05;21.6;74.4
78696;SHT31;68030;51.980;5.646;2023-09-12T03:40:33;21.6;74.5
78696;SHT31;68030;51.980;5.646;2023-09-12T03:43:02;21.6;74.6
78696;SHT31;68030;51.980;5.646;2023-09-12T03:45:33;21.6;74.4
78696;SHT31;68030;51.980;5.646;2023-09-12T03:48:02;21.6;74.1
78696;SHT31;68030;51.980;5.646;2023-09-12T03:50:31;21.6;74.0
78696;SHT31;68030;51.980;5.646;2023-09-12T03:53:01;21.6;73.7
78696;SHT31;68030;51.980;5.646;2023-09-12T03:55:30;21.6;73.5
78696;SHT31;68030;51.980;5.646;2023-09-12T03:57:59;21.6;73.3
78696;SHT31;68030;51.980;5.646;2023-09-12T04:00:27;21.6;73.7
78696;SHT31;68030;51.980;5.646;2023-09-12T04:02:55;21.5;73.6
78696;SHT31;68030;51.980;5.646;2023-09-12T04:05:24;21.5;73.7
78696;SHT31;68030;51.980;5.646;2023-09-12T04:07:53;21.5;73.6
78696;SHT31;68030;51.980;5.646;2023-09-12T04:10:23;21.5;73.3
78696;SHT31;68030;51.980;5.646;2023-09-12T04:12:53;21.5;73.3
78696;SHT31;68030;51.980;5.646;2023-09-12T04:15:22;21.5;73.5
78696;SHT31;68030;51.980;5.646;2023-09-12T04:17:50;21.5;73.7
78696;SHT31;68030;51.980;5.646;2023-09-12T04:20:20;21.5;73.6
78696;SHT31;68030;51.980;5.646;2023-09-12T04:22:48;21.4;73.5
78696;SHT31;68030;51.980;5.646;2023-09-12T04:25:18;21.4;73.6
78696;SHT31;68030;51.980;5.646;2023-09-12T04:27:47;21.4;73.7
78696;SHT31;68030;51.980;5.646;2023-09-12T04:30:16;21.4;74.1
78696;SHT31;68030;51.980;5.646;2023-09-12T04:32:44;21.4;74.3
78696;SHT31;68030;51.980;5.646;2023-09-12T04:35:13;21.4;74.5
78696;SHT31;68030;51.980;5.646;2023-09-12T04:37:43;21.4;74.5
78696;SHT31;68030;51.980;5.646;2023-09-12T04:40:12;21.4;74.4
78696;SHT31;68030;51.980;5.646;2023-09-12T04:42:41;21.4;74.5
78696;SHT31;68030;51.980;5.646;2023-09-12T04:45:10;21.3;74.0
78696;SHT31;68030;51.980;5.646;2023-09-12T04:47:38;21.3;73.7
78696;SHT31;68030;51.980;5.646;2023-09-12T04:50:08;21.3;73.4
78696;SHT31;68030;51.980;5.646;2023-09-12T04:52:40;21.3;73.3
78696;SHT31;68030;51.980;5.646;2023-09-12T04:55:09;21.3;72.5
78696;SHT31;68030;51.980;5.646;2023-09-12T04:57:39;21.2;72.4
78696;SHT31;68030;51.980;5.646;2023-09-12T05:00:08;21.2;72.4
78696;SHT31;68030;51.980;5.646;2023-09-12T05:02:40;21.1;72.5
78696;SHT31;68030;51.980;5.646;2023-09-12T05:05:11;21.1;72.5
78696;SHT31;68030;51.980;5.646;2023-09-12T05:07:39;21.1;72.6
78696;SHT31;68030;51.980;5.646;2023-09-12T05:10:08;21.0;72.7
78696;SHT31;68030;51.980;5.646;2023-09-12T05:12:37;21.0;72.7
78696;SHT31;68030;51.980;5.646;2023-09-12T05:15:07;21.0;72.8
78696;SHT31;68030;51.980;5.646;2023-09-12T05:17:36;21.0;73.4
78696;SHT31;68030;51.980;5.646;2023-09-12T05:20:08;20.9;73.4
78696;SHT31;68030;51.980;5.646;2023-09-12T05:22:37;20.9;73.5
78696;SHT31;68030;51.980;5.646;2023-09-12T05:25:06;20.9;73.8
78696;SHT31;68030;51.980;5.646;2023-09-12T05:27:35;20.9;73.9
78696;SHT31;68030;51.980;5.646;2023-09-12T05:30:05;20.9;73.8
78696;SHT31;68030;51.980;5.646;2023-09-12T05:32:35;20.9;73.9
78696;SHT31;68030;51.980;5.646;2023-09-12T05:35:05;20.9;74.2
78696;SHT31;68030;51.980;5.646;2023-09-12T05:37:34;20.9;74.6
78696;SHT31;68030;51.980;5.646;2023-09-12T05:40:03;20.9;74.9
78696;SHT31;68030;51.980;5.646;2023-09-12T05:42:34;20.9;75.5
78696;SHT31;68030;51.980;5.646;2023-09-12T05:45:03;20.9;76.0
78696;SHT31;68030;51.980;5.646;2023-09-12T05:47:32;20.9;76.0
78696;SHT31;68030;51.980;5.646;2023-09-12T05:50:01;20.9;76.2
78696;SHT31;68030;51.980;5.646;2023-09-12T05:52:32;21.0;76.7
78696;SHT31;68030;51.980;5.646;2023-09-12T05:55:01;21.0;76.8
78696;SHT31;68030;51.980;5.646;2023-09-12T05:57:31;21.1;76.9
78696;SHT31;68030;51.980;5.646;2023-09-12T06:00:01;21.1;77.1
78696;SHT31;68030;51.980;5.646;2023-09-12T06:02:30;21.1;77.2
78696;SHT31;68030;51.980;5.646;2023-09-12T06:05:00;21.2;77.0
78696;SHT31;68030;51.980;5.646;2023-09-12T06:07:29;21.3;77.0
78696;SHT31;68030;51.980;5.646;2023-09-12T06:09:58;21.3;76.9
78696;SHT31;68030;51.980;5.646;2023-09-12T06:12:27;21.4;76.8
78696;SHT31;68030;51.980;5.646;2023-09-12T06:14:56;21.4;76.8
78696;SHT31;68030;51.980;5.646;2023-09-12T06:17:24;21.5;76.6
78696;SHT31;68030;51.980;5.646;2023-09-12T06:19:56;21.5;76.3
78696;SHT31;68030;51.980;5.646;2023-09-12T06:22:25;21.6;76.0
78696;SHT31;68030;51.980;5.646;2023-09-12T06:24:53;21.6;75.9
78696;SHT31;68030;51.980;5.646;2023-09-12T06:27:22;21.7;75.9
78696;SHT31;68030;51.980;5.646;2023-09-12T06:29:53;21.7;75.9
78696;SHT31;68030;51.980;5.646;2023-09-12T06:32:21;21.8;75.7
78696;SHT31;68030;51.980;5.646;2023-09-12T06:34:49;21.8;75.8
78696;SHT31;68030;51.980;5.646;2023-09-12T06:37:18;21.9;75.5
78696;SHT31;68030;51.980;5.646;2023-09-12T06:39:49;21.9;75.5
78696;SHT31;68030;51.980;5.646;2023-09-12T06:42:18;21.9;75.4
78696;SHT31;68030;51.980;5.646;2023-09-12T06:44:48;22.0;75.2
78696;SHT31;68030;51.980;5.646;2023-09-12T06:47:17;22.0;74.9
78696;SHT31;68030;51.980;5.646;2023-09-12T06:49:45;22.1;74.9
78696;SHT31;68030;51.980;5.646;2023-09-12T06:52:13;22.1;74.7
78696;SHT31;68030;51.980;5.646;2023-09-12T06:54:42;22.1;74.7
78696;SHT31;68030;51.980;5.646;2023-09-12T06:57:10;22.2;74.5
78696;SHT31;68030;51.980;5.646;2023-09-12T06:59:41;22.2;74.4
78696;SHT31;68030;51.980;5.646;2023-09-12T07:02:10;22.3;74.3
78696;SHT31;68030;51.980;5.646;2023-09-12T07:04:40;22.3;74.1
78696;SHT31;68030;51.980;5.646;2023-09-12T07:07:08;22.3;74.0
78696;SHT31;68030;51.980;5.646;2023-09-12T07:09:37;22.4;73.9
78696;SHT31;68030;51.980;5.646;2023-09-12T07:12:06;22.4;74.1
78696;SHT31;68030;51.980;5.646;2023-09-12T07:14:36;22.4;74.1
78696;SHT31;68030;51.980;5.646;2023-09-12T07:17:05;22.5;74.0
78696;SHT31;68030;51.980;5.646;2023-09-12T07:19:35;22.5;74.1
78696;SHT31;68030;51.980;5.646;2023-09-12T07:22:04;22.6;73.9
78696;SHT31;68030;51.980;5.646;2023-09-12T07:24:32;22.6;73.9
78696;SHT31;68030;51.980;5.646;2023-09-12T07:27:01;22.7;74.1
78696;SHT31;68030;51.980;5.646;2023-09-12T07:29:30;22.7;73.6
78696;SHT31;68030;51.980;5.646;2023-09-12T07:31:58;22.8;72.9
78696;SHT31;68030;51.980;5.646;2023-09-12T07:34:27;22.8;72.5
78696;SHT31;68030;51.980;5.646;2023-09-12T07:36:55;22.9;72.2
78696;SHT31;68030;51.980;5.646;2023-09-12T07:39:24;22.9;71.8
78696;SHT31;68030;51.980;5.646;2023-09-12T07:41:53;23.0;71.5
78696;SHT31;68030;51.980;5.646;2023-09-12T07:44:21;23.0;71.6
78696;SHT31;68030;51.980;5.646;2023-09-12T07:46:52;23.1;71.4
78696;SHT31;68030;51.980;5.646;2023-09-12T07:49:20;23.1;70.8
78696;SHT31;68030;51.980;5.646;2023-09-12T07:51:51;23.2;70.8
78696;SHT31;68030;51.980;5.646;2023-09-12T07:54:20;23.2;70.4
78696;SHT31;68030;51.980;5.646;2023-09-12T07:56:49;23.2;70.3
78696;SHT31;68030;51.980;5.646;2023-09-12T07:59:18;23.3;70.6
78696;SHT31;68030;51.980;5.646;2023-09-12T08:01:46;23.3;70.1
78696;SHT31;68030;51.980;5.646;2023-09-12T08:04:17;23.3;70.3
78696;SHT31;68030;51.980;5.646;2023-09-12T08:06:46;23.3;70.2
78696;SHT31;68030;51.980;5.646;2023-09-12T08:09:16;23.4;70.2
78696;SHT31;68030;51.980;5.646;2023-09-12T08:11:44;23.4;70.1
78696;SHT31;68030;51.980;5.646;2023-09-12T08:14:13;23.5;69.9
78696;SHT31;68030;51.980;5.646;2023-09-12T08:16:42;23.5;69.4
78696;SHT31;68030;51.980;5.646;2023-09-12T08:19:10;23.5;69.5
78696;SHT31;68030;51.980;5.646;2023-09-12T08:21:39;23.6;69.6
78696;SHT31;68030;51.980;5.646;2023-09-12T08:24:07;23.7;70.2
78696;SHT31;68030;51.980;5.646;2023-09-12T08:26:36;23.8;69.7
78696;SHT31;68030;51.980;5.646;2023-09-12T08:29:06;23.9;68.7
78696;SHT31;68030;51.980;5.646;2023-09-12T08:31:35;23.9;68.8
78696;SHT31;68030;51.980;5.646;2023-09-12T08:34:03;24.0;68.3
78696;SHT31;68030;51.980;5.646;2023-09-12T08:36:32;24.0;68.3
78696;SHT31;68030;51.980;5.646;2023-09-12T08:39:02;24.1;67.8
78696;SHT31;68030;51.980;5.646;2023-09-12T08:41:31;24.1;67.3
78696;SHT31;68030;51.980;5.646;2023-09-12T08:44:01;24.2;66.9
78696;SHT31;68030;51.980;5.646;2023-09-12T08:46:32;24.2;66.5
78696;SHT31;68030;51.980;5.646;2023-09-12T08:49:01;24.3;66.0
78696;SHT31;68030;51.980;5.646;2023-09-12T08:51:30;24.3;66.7
78696;SHT31;68030;51.980;5.646;2023-09-12T08:54:00;24.3;65.3
78696;SHT31;68030;51.980;5.646;2023-09-12T08:56:32;24.4;65.0
78696;SHT31;68030;51.980;5.646;2023-09-12T08:59:01;24.4;64.7
78696;SHT31;68030;51.980;5.646;2023-09-12T09:01:34;24.4;64.8
78696;SHT31;68030;51.980;5.646;2023-09-12T09:04:05;24.5;64.9
78696;SHT31;68030;51.980;5.646;2023-09-12T09:06:34;24.5;65.2
78696;SHT31;68030;51.980;5.646;2023-09-12T09:09:06;24.6;65.1
78696;SHT31;68030;51.980;5.646;2023-09-12T09:11:36;24.7;64.9
78696;SHT31;68030;51.980;5.646;2023-09-12T09:14:05;24.7;64.3
78696;SHT31;68030;51.980;5.646;2023-09-12T09:16:34;24.8;63.0
78696;SHT31;68030;51.980;5.646;2023-09-12T09:19:05;24.9;63.4
78696;SHT31;68030;51.980;5.646;2023-09-12T09:21:37;24.9;63.3
78696;SHT31;68030;51.980;5.646;2023-09-12T09:24:10;25.0;63.2
78696;SHT31;68030;51.980;5.646;2023-09-12T09:26:47;25.1;62.6
78696;SHT31;68030;51.980;5.646;2023-09-12T09:29:17;25.2;62.3
78696;SHT31;68030;51.980;5.646;2023-09-12T09:31:47;25.3;62.2
78696;SHT31;68030;51.980;5.646;2023-09-12T09:34:17;25.3;61.0
78696;SHT31;68030;51.980;5.646;2023-09-12T09:36:50;25.4;60.5
78696;SHT31;68030;51.980;5.646;2023-09-12T09:39:22;25.5;60.9
78696;SHT31;68030;51.980;5.646;2023-09-12T09:41:53;25.6;60.2
78696;SHT31;68030;51.980;5.646;2023-09-12T09:44:23;25.7;61.0
78696;SHT31;68030;51.980;5.646;2023-09-12T09:46:55;25.7;60.0
78696;SHT31;68030;51.980;5.646;2023-09-12T09:49:31;25.8;59.8
78696;SHT31;68030;51.980;5.646;2023-09-12T09:52:03;25.9;59.7
78696;SHT31;68030;51.980;5.646;2023-09-12T09:54:33;26.0;59.1
78696;SHT31;68030;51.980;5.646;2023-09-12T09:57:01;26.0;58.5
78696;SHT31;68030;51.980;5.646;2023-09-12T09:59:29;26.1;58.8
78696;SHT31;68030;51.980;5.646;2023-09-12T10:01:59;26.2;58.5
78696;SHT31;68030;51.980;5.646;2023-09-12T10:04:34;26.2;58.6
78696;SHT31;68030;51.980;5.646;2023-09-12T10:07:03;26.3;57.6
78696;SHT31;68030;51.980;5.646;2023-09-12T10:09:34;26.4;58.0
78696;SHT31;68030;51.980;5.646;2023-09-12T10:12:07;26.4;58.9
78696;SHT31;68030;51.980;5.646;2023-09-12T10:14:39;26.5;58.4
78696;SHT31;68030;51.980;5.646;2023-09-12T10:17:11;26.6;58.2
78696;SHT31;68030;51.980;5.646;2023-09-12T10:19:44;26.6;57.9
78696;SHT31;68030;51.980;5.646;2023-09-12T10:22:21;26.6;58.8
78696;SHT31;68030;51.980;5.646;2023-09-12T10:24:55;26.7;56.8
78696;SHT31;68030;51.980;5.646;2023-09-12T10:27:27;26.7;57.6
78696;SHT31;68030;51.980;5.646;2023-09-12T10:29:57;26.7;57.6
78696;SHT31;68030;51.980;5.646;2023-09-12T10:32:26;26.8;57.1
78696;SHT31;68030;51.980;5.646;2023-09-12T10:34:59;26.8;57.2
78696;SHT31;68030;51.980;5.646;2023-09-12T10:37:29;26.9;56.9
78696;SHT31;68030;51.980;5.646;2023-09-12T10:40:01;27.0;56.5
78696;SHT31;68030;51.980;5.646;2023-09-12T10:42:35;27.0;56.3
78696;SHT31;68030;51.980;5.646;2023-09-12T10:45:06;27.0;56.0
78696;SHT31;68030;51.980;5.646;2023-09-12T10:47:36;27.1;55.9
78696;SHT31;68030;51.980;5.646;2023-09-12T10:50:06;27.1;55.7
78696;SHT31;68030;51.980;5.646;2023-09-12T10:52:35;27.1;56.0
78696;SHT31;68030;51.980;5.646;2023-09-12T10:55:07;27.1;55.1
78696;SHT31;68030;51.980;5.646;2023-09-12T10:58:01;27.2;55.8
78696;SHT31;68030;51.980;5.646;2023-09-12T11:00:32;27.2;55.5
78696;SHT31;68030;51.980;5.646;2023-09-12T11:05:54;27.4;56.2
78696;SHT31;68030;51.980;5.646;2023-09-12T11:08:23;27.4;55.5
78696;SHT31;68030;51.980;5.646;2023-09-12T11:11:18;27.5;54.7
78696;SHT31;68030;51.980;5.646;2023-09-12T11:14:04;27.5;54.3
78696;SHT31;68030;51.980;5.646;2023-09-12T11:16:34;27.6;54.6
78696;SHT31;68030;51.980;5.646;2023-09-12T11:19:17;27.6;53.8
78696;SHT31;68030;51.980;5.646;2023-09-12T11:21:48;27.6;53.9
78696;SHT31;68030;51.980;5.646;2023-09-12T11:24:18;27.6;53.5
78696;SHT31;68030;51.980;5.646;2023-09-12T11:26:55;27.6;54.2
78696;SHT31;68030;51.980;5.646;2023-09-12T11:29:26;27.6;54.2
78696;SHT31;68030;51.980;5.646;2023-09-12T11:31:57;27.7;54.1
78696;SHT31;68030;51.980;5.646;2023-09-12T11:34:36;27.7;54.5
78696;SHT31;68030;51.980;5.646;2023-09-12T11:37:03;27.8;54.6
78696;SHT31;68030;51.980;5.646;2023-09-12T11:39:35;27.9;54.3
78696;SHT31;68030;51.980;5.646;2023-09-12T11:42:05;27.9;54.1
78696;SHT31;68030;51.980;5.646;2023-09-12T11:44:41;27.9;54.5
78696;SHT31;68030;51.980;5.646;2023-09-12T11:47:13;27.9;54.3
78696;SHT31;68030;51.980;5.646;2023-09-12T11:49:43;28.0;53.8
78696;SHT31;68030;51.980;5.646;2023-09-12T11:52:14;28.0;53.8
78696;SHT31;68030;51.980;5.646;2023-09-12T11:54:44;28.0;54.1
78696;SHT31;68030;51.980;5.646;2023-09-12T11:57:14;28.1;53.9
78696;SHT31;68030;51.980;5.646;2023-09-12T11:59:44;28.1;52.6
78696;SHT31;68030;51.980;5.646;2023-09-12T12:02:15;28.2;52.8
78696;SHT31;68030;51.980;5.646;2023-09-12T12:04:45;28.2;52.5
78696;SHT31;68030;51.980;5.646;2023-09-12T12:07:14;28.3;52.3
78696;SHT31;68030;51.980;5.646;2023-09-12T12:09:42;28.3;50.7
78696;SHT31;68030;51.980;5.646;2023-09-12T12:12:14;28.3;50.8
78696;SHT31;68030;51.980;5.646;2023-09-12T12:14:43;28.3;52.3
78696;SHT31;68030;51.980;5.646;2023-09-12T12:17:12;28.3;52.5
78696;SHT31;68030;51.980;5.646;2023-09-12T12:19:45;28.3;53.2
78696;SHT31;68030;51.980;5.646;2023-09-12T12:22:14;28.3;52.5
78696;SHT31;68030;51.980;5.646;2023-09-12T12:24:45;28.4;51.5
78696;SHT31;68030;51.980;5.646;2023-09-12T12:27:14;28.4;50.8
78696;SHT31;68030;51.980;5.646;2023-09-12T12:29:43;28.5;50.6
78696;SHT31;68030;51.980;5.646;2023-09-12T12:32:15;28.5;50.7
78696;SHT31;68030;51.980;5.646;2023-09-12T12:34:47;28.5;50.6
78696;SHT31;68030;51.980;5.646;2023-09-12T12:37:16;28.6;48.9
78696;SHT31;68030;51.980;5.646;2023-09-12T12:39:45;28.6;48.3
78696;SHT31;68030;51.980;5.646;2023-09-12T12:42:13;28.6;49.5
78696;SHT31;68030;51.980;5.646;2023-09-12T12:44:42;28.6;49.2
78696;SHT31;68030;51.980;5.646;2023-09-12T12:47:11;28.6;49.0
78696;SHT31;68030;51.980;5.646;2023-09-12T12:49:40;28.7;47.1
78696;SHT31;68030;51.980;5.646;2023-09-12T12:52:11;28.7;46.8
78696;SHT31;68030;51.980;5.646;2023-09-12T12:54:41;28.7;47.7
78696;SHT31;68030;51.980;5.646;2023-09-12T12:57:12;28.7;47.4
78696;SHT31;68030;51.980;5.646;2023-09-12T12:59:44;28.8;47.5
78696;SHT31;68030;51.980;5.646;2023-09-12T13:02:13;28.8;47.5
78696;SHT31;68030;51.980;5.646;2023-09-12T13:04:43;28.8;48.2
78696;SHT31;68030;51.980;5.646;2023-09-12T13:07:12;28.9;47.7
78696;SHT31;68030;51.980;5.646;2023-09-12T13:09:40;28.9;47.5
78696;SHT31;68030;51.980;5.646;2023-09-12T13:12:11;28.9;47.1
78696;SHT31;68030;51.980;5.646;2023-09-12T13:14:41;28.9;48.2
78696;SHT31;68030;51.980;5.646;2023-09-12T13:17:10;29.0;47.8
78696;SHT31;68030;51.980;5.646;2023-09-12T13:19:39;29.0;48.2
78696;SHT31;68030;51.980;5.646;2023-09-12T13:22:08;29.1;48.9
78696;SHT31;68030;51.980;5.646;2023-09-12T13:24:37;29.2;49.7
78696;SHT31;68030;51.980;5.646;2023-09-12T13:27:06;29.2;49.0
78696;SHT31;68030;51.980;5.646;2023-09-12T13:29:35;29.3;47.9
78696;SHT31;68030;51.980;5.646;2023-09-12T13:32:03;29.4;47.0
78696;SHT31;68030;51.980;5.646;2023-09-12T13:34:32;29.5;47.5
78696;SHT31;68030;51.980;5.646;2023-09-12T13:37:02;29.5;47.7
78696;SHT31;68030;51.980;5.646;2023-09-12T13:39:30;29.6;46.6
78696;SHT31;68030;51.980;5.646;2023-09-12T13:41:59;29.7;46.3
78696;SHT31;68030;51.980;5.646;2023-09-12T13:44:30;29.8;44.7
78696;SHT31;68030;51.980;5.646;2023-09-12T13:46:59;29.8;45.1
78696;SHT31;68030;51.980;5.646;2023-09-12T13:49:28;29.9;45.5
78696;SHT31;68030;51.980;5.646;2023-09-12T13:51:57;30.0;44.8
78696;SHT31;68030;51.980;5.646;2023-09-12T13:54:25;30.0;44.7
78696;SHT31;68030;51.980;5.646;2023-09-12T13:56:55;30.0;43.1
78696;SHT31;68030;51.980;5.646;2023-09-12T13:59:25;30.0;43.1
78696;SHT31;68030;51.980;5.646;2023-09-12T14:01:53;30.0;43.6
78696;SHT31;68030;51.980;5.646;2023-09-12T14:04:22;30.0;43.0
78696;SHT31;68030;51.980;5.646;2023-09-12T14:06:51;29.9;42.7
78696;SHT31;68030;51.980;5.646;2023-09-12T14:09:21;29.9;43.2
78696;SHT31;68030;51.980;5.646;2023-09-12T14:11:50;29.9;43.5
78696;SHT31;68030;51.980;5.646;2023-09-12T14:14:20;29.8;43.8
78696;SHT31;68030;51.980;5.646;2023-09-12T14:16:49;29.7;42.8
78696;SHT31;68030;51.980;5.646;2023-09-12T14:19:17;29.7;43.8
78696;SHT31;68030;51.980;5.646;2023-09-12T14:21:46;29.7;45.0
78696;SHT31;68030;51.980;5.646;2023-09-12T14:24:15;29.7;44.8
78696;SHT31;68030;51.980;5.646;2023-09-12T14:26:43;29.7;45.7
78696;SHT31;68030;51.980;5.646;2023-09-12T14:29:12;29.7;46.1
78696;SHT31;68030;51.980;5.646;2023-09-12T14:31:40;29.7;46.1
78696;SHT31;68030;51.980;5.646;2023-09-12T14:34:14;29.7;46.0
78696;SHT31;68030;51.980;5.646;2023-09-12T14:36:42;29.7;46.2
78696;SHT31;68030;51.980;5.646;2023-09-12T14:39:12;29.7;46.0
78696;SHT31;68030;51.980;5.646;2023-09-12T14:41:41;29.7;47.1
78696;SHT31;68030;51.980;5.646;2023-09-12T14:44:10;29.7;47.8
78696;SHT31;68030;51.980;5.646;2023-09-12T14:46:38;29.7;46.4
78696;SHT31;68030;51.980;5.646;2023-09-12T14:49:07;29.7;46.5
78696;SHT31;68030;51.980;5.646;2023-09-12T14:51:36;29.6;46.8
78696;SHT31;68030;51.980;5.646;2023-09-12T14:54:08;29.6;46.4
78696;SHT31;68030;51.980;5.646;2023-09-12T14:56:37;29.5;46.4
78696;SHT31;68030;51.980;5.646;2023-09-12T14:59:08;29.5;47.3
78696;SHT31;68030;51.980;5.646;2023-09-12T15:01:37;29.4;46.7
78696;SHT31;68030;51.980;5.646;2023-09-12T15:04:07;29.4;46.3
78696;SHT31;68030;51.980;5.646;2023-09-12T15:06:37;29.3;46.8
78696;SHT31;68030;51.980;5.646;2023-09-12T15:09:06;29.3;47.0
78696;SHT31;68030;51.980;5.646;2023-09-12T15:11:36;29.2;47.0
78696;SHT31;68030;51.980;5.646;2023-09-12T15:14:05;29.2;47.1
78696;SHT31;68030;51.980;5.646;2023-09-12T15:16:34;29.1;47.9
78696;SHT31;68030;51.980;5.646;2023-09-12T15:19:03;29.0;47.3
78696;SHT31;68030;51.980;5.646;2023-09-12T15:21:31;29.0;47.7
78696;SHT31;68030;51.980;5.646;2023-09-12T15:24:00;28.9;47.3
78696;SHT31;68030;51.980;5.646;2023-09-12T15:26:32;28.9;47.8
78696;SHT31;68030;51.980;5.646;2023-09-12T15:29:00;28.9;48.1
78696;SHT31;68030;51.980;5.646;2023-09-12T15:31:29;28.8;49.0
78696;SHT31;68030;51.980;5.646;2023-09-12T15:33:58;28.8;49.8
78696;SHT31;68030;51.980;5.646;2023-09-12T15:36:26;28.8;50.7
78696;SHT31;68030;51.980;5.646;2023-09-12T15:38:55;28.8;52.2
78696;SHT31;68030;51.980;5.646;2023-09-12T15:41:24;28.7;52.9
78696;SHT31;68030;51.980;5.646;2023-09-12T15:43:53;28.7;53.2
78696;SHT31;68030;51.980;5.646;2023-09-12T15:46:21;28.7;53.2
78696;SHT31;68030;51.980;5.646;2023-09-12T15:48:50;28.6;52.7
78696;SHT31;68030;51.980;5.646;2023-09-12T15:51:19;28.6;53.0
78696;SHT31;68030;51.980;5.646;2023-09-12T15:53:47;28.5;53.6
78696;SHT31;68030;51.980;5.646;2023-09-12T15:56:16;28.5;53.3
78696;SHT31;68030;51.980;5.646;2023-09-12T15:58:47;28.5;52.5
78696;SHT31;68030;51.980;5.646;2023-09-12T16:01:16;28.4;52.8
78696;SHT31;68030;51.980;5.646;2023-09-12T16:03:45;28.4;53.2
78696;SHT31;68030;51.980;5.646;2023-09-12T16:06:14;28.4;52.4
78696;SHT31;68030;51.980;5.646;2023-09-12T16:08:42;28.3;52.5
78696;SHT31;68030;51.980;5.646;2023-09-12T16:11:11;28.3;52.7
78696;SHT31;68030;51.980;5.646;2023-09-12T16:13:40;28.2;52.4
78696;SHT31;68030;51.980;5.646;2023-09-12T16:16:10;28.2;52.1
78696;SHT31;68030;51.980;5.646;2023-09-12T16:18:40;28.1;52.1
78696;SHT31;68030;51.980;5.646;2023-09-12T16:21:09;28.0;52.7
78696;SHT31;68030;51.980;5.646;2023-09-12T16:23:38;28.0;52.8